sensor_id;sensor_type;location;lat;lon;timestamp;temperature;humidity
32965;DHT22;19317;48.226;11.686;2023-04-29T00:02:11;11.60;99.90
32965;DHT22;19317;48.226;11.686;2023-04-29T00:07:02;10.80;99.90
32965;DHT22;19317;48.226;11.686;2023-04-29T00:11:52;10.70;99.90
32965;DHT22;19317;48.226;11.686;2023-04-29T00:16:43;10.70;99.90
32965;DHT22;19317;48.226;11.686;2023-04-29T00:21:33;10.70;99.90
32965;DHT22;19317;48.226;11.686;2023-04-29T00:26:24;10.60;99.90
32965;DHT22;19317;48.226;11.686;2023-04-29T00:31:14;10.60;99.90
32965;DHT22;19317;48.226;11.686;2023-04-29T00:36:05;10.60;99.90
32965;DHT22;19317;48.226;11.686;2023-04-29T00:40:55;10.60;99.90
32965;DHT22;19317;48.226;11.686;2023-04-29T00:45:46;10.60;99.90
32965;DHT22;19317;48.226;11.686;2023-04-29T00:50:37;10.70;99.90
32965;DHT22;19317;48.226;11.686;2023-04-29T00:55:27;10.70;99.90
32965;DHT22;19317;48.226;11.686;2023-04-29T01:00:18;10.80;99.90
32965;DHT22;19317;48.226;11.686;2023-04-29T01:05:09;10.70;99.90
32965;DHT22;19317;48.226;11.686;2023-04-29T01:10:15;10.80;99.90
32965;DHT22;19317;48.226;11.686;2023-04-29T01:15:18;10.80;99.90
32965;DHT22;19317;48.226;11.686;2023-04-29T01:20:11;10.70;99.90
32965;DHT22;19317;48.226;11.686;2023-04-29T01:25:02;10.80;99.90
32965;DHT22;19317;48.226;11.686;2023-04-29T01:35:10;10.80;99.90
32965;DHT22;19317;48.226;11.686;2023-04-29T01:45:14;10.90;99.90
32965;DHT22;19317;48.226;11.686;2023-04-29T01:50:05;10.80;99.90
32965;DHT22;19317;48.226;11.686;2023-04-29T01:54:56;10.80;99.90
32965;DHT22;19317;48.226;11.686;2023-04-29T01:59:46;10.90;99.90
32965;DHT22;19317;48.226;11.686;2023-04-29T02:04:37;10.90;99.90
32965;DHT22;19317;48.226;11.686;2023-04-29T02:09:27;10.90;99.90
32965;DHT22;19317;48.226;11.686;2023-04-29T02:14:18;10.80;99.90
32965;DHT22;19317;48.226;11.686;2023-04-29T02:19:08;10.90;99.90
32965;DHT22;19317;48.226;11.686;2023-04-29T02:23:58;11.00;99.90
32965;DHT22;19317;48.226;11.686;2023-04-29T02:28:49;11.10;99.90
32965;DHT22;19317;48.226;11.686;2023-04-29T02:33:39;11.20;99.90
32965;DHT22;19317;48.226;11.686;2023-04-29T02:38:30;11.30;99.90
32965;DHT22;19317;48.226;11.686;2023-04-29T02:43:20;11.30;99.90
32965;DHT22;19317;48.226;11.686;2023-04-29T02:48:11;11.20;99.90
32965;DHT22;19317;48.226;11.686;2023-04-29T02:53:01;11.30;99.90
32965;DHT22;19317;48.226;11.686;2023-04-29T02:57:52;11.30;99.90
32965;DHT22;19317;48.226;11.686;2023-04-29T03:02:42;11.30;99.90
32965;DHT22;19317;48.226;11.686;2023-04-29T03:07:33;11.30;99.90
32965;DHT22;19317;48.226;11.686;2023-04-29T03:12:23;11.30;99.90
32965;DHT22;19317;48.226;11.686;2023-04-29T03:17:14;11.30;99.90
32965;DHT22;19317;48.226;11.686;2023-04-29T03:22:04;11.40;99.90
32965;DHT22;19317;48.226;11.686;2023-04-29T03:26:55;11.60;99.90
32965;DHT22;19317;48.226;11.686;2023-04-29T03:31:45;11.60;99.90
32965;DHT22;19317;48.226;11.686;2023-04-29T03:36:36;11.70;99.90
32965;DHT22;19317;48.226;11.686;2023-04-29T03:41:26;11.70;99.90
32965;DHT22;19317;48.226;11.686;2023-04-29T03:46:17;11.80;99.90
32965;DHT22;19317;48.226;11.686;2023-04-29T03:51:07;11.80;99.90
32965;DHT22;19317;48.226;11.686;2023-04-29T03:55:58;11.80;99.90
32965;DHT22;19317;48.226;11.686;2023-04-29T04:00:48;11.80;99.90
32965;DHT22;19317;48.226;11.686;2023-04-29T04:05:39;11.80;99.90
32965;DHT22;19317;48.226;11.686;2023-04-29T04:10:29;11.90;99.90
32965;DHT22;19317;48.226;11.686;2023-04-29T04:15:20;11.90;99.90
32965;DHT22;19317;48.226;11.686;2023-04-29T04:20:11;11.90;99.90
32965;DHT22;19317;48.226;11.686;2023-04-29T04:25:02;11.80;99.90
32965;DHT22;19317;48.226;11.686;2023-04-29T04:29:55;11.90;99.90
32965;DHT22;19317;48.226;11.686;2023-04-29T04:34:46;11.80;99.90
32965;DHT22;19317;48.226;11.686;2023-04-29T04:39:37;11.80;99.90
32965;DHT22;19317;48.226;11.686;2023-04-29T04:44:28;11.80;99.90
32965;DHT22;19317;48.226;11.686;2023-04-29T04:49:18;11.70;99.90
32965;DHT22;19317;48.226;11.686;2023-04-29T04:54:09;11.70;99.90
32965;DHT22;19317;48.226;11.686;2023-04-29T04:58:59;11.80;99.90
32965;DHT22;19317;48.226;11.686;2023-04-29T05:03:49;11.90;99.90
32965;DHT22;19317;48.226;11.686;2023-04-29T05:08:40;11.90;99.90
32965;DHT22;19317;48.226;11.686;2023-04-29T05:13:32;12.20;99.90
32965;DHT22;19317;48.226;11.686;2023-04-29T05:18:22;12.20;99.90
32965;DHT22;19317;48.226;11.686;2023-04-29T05:23:13;12.30;99.90
32965;DHT22;19317;48.226;11.686;2023-04-29T05:28:03;12.40;99.90
32965;DHT22;19317;48.226;11.686;2023-04-29T05:32:54;12.40;99.90
32965;DHT22;19317;48.226;11.686;2023-04-29T05:37:44;12.50;99.90
32965;DHT22;19317;48.226;11.686;2023-04-29T05:42:35;12.50;99.90
32965;DHT22;19317;48.226;11.686;2023-04-29T05:47:25;12.60;99.90
32965;DHT22;19317;48.226;11.686;2023-04-29T05:52:15;12.70;99.90
32965;DHT22;19317;48.226;11.686;2023-04-29T05:57:06;12.70;99.90
32965;DHT22;19317;48.226;11.686;2023-04-29T06:01:57;12.70;99.90
32965;DHT22;19317;48.226;11.686;2023-04-29T06:06:48;12.70;99.90
32965;DHT22;19317;48.226;11.686;2023-04-29T06:11:38;12.70;99.90
32965;DHT22;19317;48.226;11.686;2023-04-29T06:16:29;12.60;99.90
32965;DHT22;19317;48.226;11.686;2023-04-29T06:21:20;12.70;99.90
32965;DHT22;19317;48.226;11.686;2023-04-29T06:26:10;12.60;99.90
32965;DHT22;19317;48.226;11.686;2023-04-29T06:31:00;12.50;99.90
32965;DHT22;19317;48.226;11.686;2023-04-29T06:35:51;12.40;99.90
32965;DHT22;19317;48.226;11.686;2023-04-29T06:40:41;12.50;99.90
32965;DHT22;19317;48.226;11.686;2023-04-29T06:45:32;12.40;99.90
32965;DHT22;19317;48.226;11.686;2023-04-29T06:50:22;12.50;99.90
32965;DHT22;19317;48.226;11.686;2023-04-29T06:55:13;12.60;99.90
32965;DHT22;19317;48.226;11.686;2023-04-29T07:00:04;12.60;99.90
32965;DHT22;19317;48.226;11.686;2023-04-29T07:04:54;12.70;99.90
32965;DHT22;19317;48.226;11.686;2023-04-29T07:09:45;12.80;99.90
32965;DHT22;19317;48.226;11.686;2023-04-29T07:14:35;12.90;99.90
32965;DHT22;19317;48.226;11.686;2023-04-29T07:19:25;13.10;99.90
32965;DHT22;19317;48.226;11.686;2023-04-29T07:24:16;13.30;99.90
32965;DHT22;19317;48.226;11.686;2023-04-29T07:29:06;13.30;99.90
32965;DHT22;19317;48.226;11.686;2023-04-29T07:33:57;13.60;99.90
32965;DHT22;19317;48.226;11.686;2023-04-29T07:38:47;13.80;99.90
32965;DHT22;19317;48.226;11.686;2023-04-29T07:43:38;13.90;99.90
32965;DHT22;19317;48.226;11.686;2023-04-29T07:48:28;14.10;99.90
32965;DHT22;19317;48.226;11.686;2023-04-29T07:53:19;14.50;99.90
32965;DHT22;19317;48.226;11.686;2023-04-29T07:58:09;14.40;99.90
32965;DHT22;19317;48.226;11.686;2023-04-29T08:03:00;14.50;99.90
32965;DHT22;19317;48.226;11.686;2023-04-29T08:07:50;14.60;99.90
32965;DHT22;19317;48.226;11.686;2023-04-29T08:12:44;14.50;99.90
32965;DHT22;19317;48.226;11.686;2023-04-29T08:17:34;14.60;99.90
32965;DHT22;19317;48.226;11.686;2023-04-29T08:22:25;14.90;99.90
32965;DHT22;19317;48.226;11.686;2023-04-29T08:27:15;15.10;99.90
32965;DHT22;19317;48.226;11.686;2023-04-29T08:32:06;15.30;99.90
32965;DHT22;19317;48.226;11.686;2023-04-29T08:36:56;15.30;99.90
32965;DHT22;19317;48.226;11.686;2023-04-29T08:41:47;15.30;99.90
32965;DHT22;19317;48.226;11.686;2023-04-29T08:51:30;15.40;99.90
32965;DHT22;19317;48.226;11.686;2023-04-29T08:56:20;15.70;99.90
32965;DHT22;19317;48.226;11.686;2023-04-29T09:01:12;15.80;99.90
32965;DHT22;19317;48.226;11.686;2023-04-29T09:06:04;16.00;99.90
32965;DHT22;19317;48.226;11.686;2023-04-29T09:10:55;15.70;99.90
32965;DHT22;19317;48.226;11.686;2023-04-29T09:15:47;15.40;99.90
32965;DHT22;19317;48.226;11.686;2023-04-29T09:20:37;15.50;99.90
32965;DHT22;19317;48.226;11.686;2023-04-29T09:25:28;15.60;99.90
32965;DHT22;19317;48.226;11.686;2023-04-29T09:30:18;15.40;99.90
32965;DHT22;19317;48.226;11.686;2023-04-29T09:35:26;15.20;99.90
32965;DHT22;19317;48.226;11.686;2023-04-29T09:40:30;15.30;99.90
32965;DHT22;19317;48.226;11.686;2023-04-29T09:45:36;15.50;99.90
32965;DHT22;19317;48.226;11.686;2023-04-29T09:50:27;15.50;99.90
32965;DHT22;19317;48.226;11.686;2023-04-29T09:55:18;15.90;99.90
32965;DHT22;19317;48.226;11.686;2023-04-29T10:00:08;15.80;99.90
32965;DHT22;19317;48.226;11.686;2023-04-29T10:04:59;15.60;99.90
32965;DHT22;19317;48.226;11.686;2023-04-29T10:09:50;14.70;99.90
32965;DHT22;19317;48.226;11.686;2023-04-29T10:15:01;14.30;99.90
32965;DHT22;19317;48.226;11.686;2023-04-29T10:20:01;14.30;99.90
32965;DHT22;19317;48.226;11.686;2023-04-29T10:24:54;14.70;99.90
32965;DHT22;19317;48.226;11.686;2023-04-29T10:29:47;15.10;99.90
32965;DHT22;19317;48.226;11.686;2023-04-29T10:34:40;15.50;99.90
32965;DHT22;19317;48.226;11.686;2023-04-29T10:45:19;16.20;99.90
32965;DHT22;19317;48.226;11.686;2023-04-29T10:50:10;16.40;99.90
32965;DHT22;19317;48.226;11.686;2023-04-29T10:55:03;16.90;99.90
32965;DHT22;19317;48.226;11.686;2023-04-29T10:59:54;16.50;99.90
32965;DHT22;19317;48.226;11.686;2023-04-29T11:05:07;16.20;99.90
32965;DHT22;19317;48.226;11.686;2023-04-29T11:09:57;16.60;99.90
32965;DHT22;19317;48.226;11.686;2023-04-29T11:14:51;17.10;99.90
32965;DHT22;19317;48.226;11.686;2023-04-29T11:19:46;16.60;99.90
32965;DHT22;19317;48.226;11.686;2023-04-29T11:24:57;16.50;99.90
32965;DHT22;19317;48.226;11.686;2023-04-29T11:29:49;16.70;99.90
32965;DHT22;19317;48.226;11.686;2023-04-29T11:34:39;16.90;99.90
32965;DHT22;19317;48.226;11.686;2023-04-29T11:39:33;16.80;99.90
32965;DHT22;19317;48.226;11.686;2023-04-29T11:44:24;16.90;99.90
32965;DHT22;19317;48.226;11.686;2023-04-29T11:49:14;17.00;99.90
32965;DHT22;19317;48.226;11.686;2023-04-29T11:54:06;17.00;99.90
32965;DHT22;19317;48.226;11.686;2023-04-29T11:58:57;16.50;99.90
32965;DHT22;19317;48.226;11.686;2023-04-29T12:03:48;16.60;99.90
32965;DHT22;19317;48.226;11.686;2023-04-29T12:08:39;17.00;99.90
32965;DHT22;19317;48.226;11.686;2023-04-29T12:13:29;16.50;99.90
32965;DHT22;19317;48.226;11.686;2023-04-29T12:18:20;16.70;99.90
32965;DHT22;19317;48.226;11.686;2023-04-29T12:23:16;16.70;99.90
32965;DHT22;19317;48.226;11.686;2023-04-29T12:28:13;17.00;99.90
32965;DHT22;19317;48.226;11.686;2023-04-29T12:33:03;16.90;99.90
32965;DHT22;19317;48.226;11.686;2023-04-29T12:37:57;17.00;99.90
32965;DHT22;19317;48.226;11.686;2023-04-29T12:42:48;16.50;99.90
32965;DHT22;19317;48.226;11.686;2023-04-29T12:47:38;16.90;99.90
32965;DHT22;19317;48.226;11.686;2023-04-29T12:52:28;17.30;99.90
32965;DHT22;19317;48.226;11.686;2023-04-29T12:57:19;17.00;99.90
32965;DHT22;19317;48.226;11.686;2023-04-29T13:02:09;17.10;99.90
32965;DHT22;19317;48.226;11.686;2023-04-29T13:07:00;17.40;99.90
32965;DHT22;19317;48.226;11.686;2023-04-29T13:11:50;17.20;99.90
32965;DHT22;19317;48.226;11.686;2023-04-29T13:16:41;17.60;99.90
32965;DHT22;19317;48.226;11.686;2023-04-29T13:21:31;16.90;99.90
32965;DHT22;19317;48.226;11.686;2023-04-29T13:26:22;17.00;99.90
32965;DHT22;19317;48.226;11.686;2023-04-29T13:31:12;17.80;99.90
32965;DHT22;19317;48.226;11.686;2023-04-29T13:36:03;17.50;99.90
32965;DHT22;19317;48.226;11.686;2023-04-29T13:40:53;16.80;99.90
32965;DHT22;19317;48.226;11.686;2023-04-29T13:45:44;16.80;99.90
32965;DHT22;19317;48.226;11.686;2023-04-29T13:50:34;17.00;99.90
32965;DHT22;19317;48.226;11.686;2023-04-29T13:55:24;16.90;99.90
32965;DHT22;19317;48.226;11.686;2023-04-29T14:00:15;16.80;99.90
32965;DHT22;19317;48.226;11.686;2023-04-29T14:05:06;17.00;99.90
32965;DHT22;19317;48.226;11.686;2023-04-29T14:09:56;16.70;99.90
32965;DHT22;19317;48.226;11.686;2023-04-29T14:14:47;17.20;99.90
32965;DHT22;19317;48.226;11.686;2023-04-29T14:19:37;16.80;99.90
32965;DHT22;19317;48.226;11.686;2023-04-29T14:24:28;17.50;99.90
32965;DHT22;19317;48.226;11.686;2023-04-29T14:29:18;17.20;99.90
32965;DHT22;19317;48.226;11.686;2023-04-29T14:34:09;17.60;99.90
32965;DHT22;19317;48.226;11.686;2023-04-29T14:38:59;17.10;99.90
32965;DHT22;19317;48.226;11.686;2023-04-29T14:43:50;17.10;99.90
32965;DHT22;19317;48.226;11.686;2023-04-29T14:48:40;17.30;99.90
32965;DHT22;19317;48.226;11.686;2023-04-29T14:53:31;17.20;99.90
32965;DHT22;19317;48.226;11.686;2023-04-29T14:58:21;17.40;99.90
32965;DHT22;19317;48.226;11.686;2023-04-29T15:03:12;17.50;99.90
32965;DHT22;19317;48.226;11.686;2023-04-29T15:08:02;17.50;99.90
32965;DHT22;19317;48.226;11.686;2023-04-29T15:12:53;17.50;99.90
32965;DHT22;19317;48.226;11.686;2023-04-29T15:17:44;17.00;99.90
32965;DHT22;19317;48.226;11.686;2023-04-29T15:22:34;17.30;99.90
32965;DHT22;19317;48.226;11.686;2023-04-29T15:27:25;16.80;99.90
32965;DHT22;19317;48.226;11.686;2023-04-29T15:32:15;17.00;99.90
32965;DHT22;19317;48.226;11.686;2023-04-29T15:37:05;17.00;99.90
32965;DHT22;19317;48.226;11.686;2023-04-29T15:41:56;17.00;99.90
32965;DHT22;19317;48.226;11.686;2023-04-29T15:46:48;16.80;99.90
32965;DHT22;19317;48.226;11.686;2023-04-29T15:51:38;16.90;99.90
32965;DHT22;19317;48.226;11.686;2023-04-29T15:56:29;17.20;99.90
32965;DHT22;19317;48.226;11.686;2023-04-29T16:01:19;17.00;99.90
32965;DHT22;19317;48.226;11.686;2023-04-29T16:06:10;16.90;99.90
32965;DHT22;19317;48.226;11.686;2023-04-29T16:11:00;17.10;99.90
32965;DHT22;19317;48.226;11.686;2023-04-29T16:15:51;17.00;99.90
32965;DHT22;19317;48.226;11.686;2023-04-29T16:20:41;16.70;99.90
32965;DHT22;19317;48.226;11.686;2023-04-29T16:25:31;16.10;99.90
32965;DHT22;19317;48.226;11.686;2023-04-29T16:30:22;16.20;99.90
32965;DHT22;19317;48.226;11.686;2023-04-29T16:35:12;15.90;99.90
32965;DHT22;19317;48.226;11.686;2023-04-29T16:40:03;17.00;99.90
32965;DHT22;19317;48.226;11.686;2023-04-29T16:44:54;16.90;99.90
32965;DHT22;19317;48.226;11.686;2023-04-29T16:49:45;16.70;99.90
32965;DHT22;19317;48.226;11.686;2023-04-29T16:54:36;16.00;99.90
32965;DHT22;19317;48.226;11.686;2023-04-29T16:59:26;16.00;99.90
32965;DHT22;19317;48.226;11.686;2023-04-29T17:04:16;15.80;99.90
32965;DHT22;19317;48.226;11.686;2023-04-29T17:09:07;16.00;99.90
32965;DHT22;19317;48.226;11.686;2023-04-29T17:13:58;15.60;99.90
32965;DHT22;19317;48.226;11.686;2023-04-29T17:18:48;15.60;99.90
32965;DHT22;19317;48.226;11.686;2023-04-29T17:23:38;15.40;99.90
32965;DHT22;19317;48.226;11.686;2023-04-29T17:28:29;15.70;99.90
32965;DHT22;19317;48.226;11.686;2023-04-29T17:33:20;15.20;99.90
32965;DHT22;19317;48.226;11.686;2023-04-29T17:38:11;15.10;99.90
32965;DHT22;19317;48.226;11.686;2023-04-29T17:43:01;14.90;99.90
32965;DHT22;19317;48.226;11.686;2023-04-29T17:47:52;14.90;99.90
32965;DHT22;19317;48.226;11.686;2023-04-29T17:52:42;14.80;99.90
32965;DHT22;19317;48.226;11.686;2023-04-29T17:57:33;14.70;99.90
32965;DHT22;19317;48.226;11.686;2023-04-29T18:02:23;14.70;99.90
32965;DHT22;19317;48.226;11.686;2023-04-29T18:07:14;14.80;99.90
32965;DHT22;19317;48.226;11.686;2023-04-29T18:12:04;14.90;99.90
32965;DHT22;19317;48.226;11.686;2023-04-29T18:16:55;14.90;99.90
32965;DHT22;19317;48.226;11.686;2023-04-29T18:21:46;14.90;99.90
32965;DHT22;19317;48.226;11.686;2023-04-29T18:26:36;14.90;99.90
32965;DHT22;19317;48.226;11.686;2023-04-29T18:31:27;14.70;99.90
32965;DHT22;19317;48.226;11.686;2023-04-29T18:36:17;14.60;99.90
32965;DHT22;19317;48.226;11.686;2023-04-29T18:41:08;14.30;99.90
32965;DHT22;19317;48.226;11.686;2023-04-29T18:45:59;14.50;99.90
32965;DHT22;19317;48.226;11.686;2023-04-29T18:50:50;14.40;99.90
32965;DHT22;19317;48.226;11.686;2023-04-29T18:55:40;14.00;99.90
32965;DHT22;19317;48.226;11.686;2023-04-29T19:00:31;14.20;99.90
32965;DHT22;19317;48.226;11.686;2023-04-29T19:05:21;13.90;99.90
32965;DHT22;19317;48.226;11.686;2023-04-29T19:10:12;13.80;99.90
32965;DHT22;19317;48.226;11.686;2023-04-29T19:15:03;13.60;99.90
32965;DHT22;19317;48.226;11.686;2023-04-29T19:19:53;13.50;99.90
32965;DHT22;19317;48.226;11.686;2023-04-29T19:24:44;14.00;99.90
32965;DHT22;19317;48.226;11.686;2023-04-29T19:29:34;13.90;99.90
32965;DHT22;19317;48.226;11.686;2023-04-29T19:34:25;14.00;99.90
32965;DHT22;19317;48.226;11.686;2023-04-29T19:39:15;14.00;99.90
32965;DHT22;19317;48.226;11.686;2023-04-29T19:44:05;13.60;99.90
32965;DHT22;19317;48.226;11.686;2023-04-29T19:48:56;13.40;99.90
32965;DHT22;19317;48.226;11.686;2023-04-29T19:53:47;13.60;99.90
32965;DHT22;19317;48.226;11.686;2023-04-29T19:58:38;13.40;99.90
32965;DHT22;19317;48.226;11.686;2023-04-29T20:03:28;13.30;99.90
32965;DHT22;19317;48.226;11.686;2023-04-29T20:08:18;13.30;99.90
32965;DHT22;19317;48.226;11.686;2023-04-29T20:13:09;13.30;99.90
32965;DHT22;19317;48.226;11.686;2023-04-29T20:17:59;13.00;99.90
32965;DHT22;19317;48.226;11.686;2023-04-29T20:22:50;13.10;99.90
32965;DHT22;19317;48.226;11.686;2023-04-29T20:27:40;12.80;99.90
32965;DHT22;19317;48.226;11.686;2023-04-29T20:32:31;12.80;99.90
32965;DHT22;19317;48.226;11.686;2023-04-29T20:37:21;12.80;99.90
32965;DHT22;19317;48.226;11.686;2023-04-29T20:42:12;12.60;99.90
32965;DHT22;19317;48.226;11.686;2023-04-29T20:47:02;12.50;99.90
32965;DHT22;19317;48.226;11.686;2023-04-29T20:51:53;12.60;99.90
32965;DHT22;19317;48.226;11.686;2023-04-29T20:56:43;12.90;99.90
32965;DHT22;19317;48.226;11.686;2023-04-29T21:01:34;13.00;99.90
32965;DHT22;19317;48.226;11.686;2023-04-29T21:06:24;12.80;99.90
32965;DHT22;19317;48.226;11.686;2023-04-29T21:11:15;12.80;99.90
32965;DHT22;19317;48.226;11.686;2023-04-29T21:16:05;13.00;99.90
32965;DHT22;19317;48.226;11.686;2023-04-29T21:20:56;12.90;99.90
32965;DHT22;19317;48.226;11.686;2023-04-29T21:25:46;12.70;99.90
32965;DHT22;19317;48.226;11.686;2023-04-29T21:30:37;12.90;99.90
32965;DHT22;19317;48.226;11.686;2023-04-29T21:35:27;12.80;99.90
32965;DHT22;19317;48.226;11.686;2023-04-29T21:40:18;12.40;99.90
32965;DHT22;19317;48.226;11.686;2023-04-29T21:45:09;12.60;99.90
32965;DHT22;19317;48.226;11.686;2023-04-29T21:49:59;12.50;99.90
32965;DHT22;19317;48.226;11.686;2023-04-29T21:54:50;12.00;99.90
32965;DHT22;19317;48.226;11.686;2023-04-29T21:59:40;11.90;99.90
32965;DHT22;19317;48.226;11.686;2023-04-29T22:04:31;12.50;99.90
32965;DHT22;19317;48.226;11.686;2023-04-29T22:09:21;12.40;99.90
32965;DHT22;19317;48.226;11.686;2023-04-29T22:14:12;12.70;99.90
32965;DHT22;19317;48.226;11.686;2023-04-29T22:19:02;12.70;99.90
32965;DHT22;19317;48.226;11.686;2023-04-29T22:23:53;12.40;99.90
32965;DHT22;19317;48.226;11.686;2023-04-29T22:28:44;12.60;99.90
32965;DHT22;19317;48.226;11.686;2023-04-29T22:33:34;12.70;99.90
32965;DHT22;19317;48.226;11.686;2023-04-29T22:38:25;11.90;99.90
32965;DHT22;19317;48.226;11.686;2023-04-29T22:43:15;11.90;99.90
32965;DHT22;19317;48.226;11.686;2023-04-29T22:48:06;11.90;99.90
32965;DHT22;19317;48.226;11.686;2023-04-29T22:52:56;11.80;99.90
32965;DHT22;19317;48.226;11.686;2023-04-29T22:57:49;12.00;99.90
32965;DHT22;19317;48.226;11.686;2023-04-29T23:02:40;12.00;99.90
32965;DHT22;19317;48.226;11.686;2023-04-29T23:07:30;12.30;99.90
32965;DHT22;19317;48.226;11.686;2023-04-29T23:12:21;12.10;99.90
32965;DHT22;19317;48.226;11.686;2023-04-29T23:17:11;11.80;99.90
32965;DHT22;19317;48.226;11.686;2023-04-29T23:22:02;11.70;99.90
32965;DHT22;19317;48.226;11.686;2023-04-29T23:26:52;11.70;99.90
32965;DHT22;19317;48.226;11.686;2023-04-29T23:31:43;11.80;99.90
32965;DHT22;19317;48.226;11.686;2023-04-29T23:36:34;11.70;99.90
32965;DHT22;19317;48.226;11.686;2023-04-29T23:41:24;11.70;99.90
32965;DHT22;19317;48.226;11.686;2023-04-29T23:46:15;11.60;99.90
32965;DHT22;19317;48.226;11.686;2023-04-29T23:51:05;11.60;99.90
32965;DHT22;19317;48.226;11.686;2023-04-29T23:55:56;11.60;99.90
